createdAt,value
2018-05-16T00:01:29.696Z,7.27
2018-05-16T00:03:57.978Z,6.53
2018-05-16T00:06:25.576Z,7.23
2018-05-16T00:08:53.152Z,6.97
2018-05-16T00:11:20.879Z,7.70
2018-05-16T00:13:48.478Z,7.57
2018-05-16T00:16:16.116Z,6.97
2018-05-16T00:18:43.913Z,7.27
2018-05-16T00:21:11.496Z,6.90
2018-05-16T00:23:39.066Z,7.00
2018-05-16T00:26:06.712Z,6.77
2018-05-16T00:28:34.280Z,7.57
2018-05-16T00:31:02.604Z,6.57
2018-05-16T00:33:30.347Z,7.27
2018-05-16T00:35:57.924Z,7.10
2018-05-16T00:38:25.567Z,7.07
2018-05-16T00:40:53.209Z,7.07
2018-05-16T00:43:20.887Z,7.30
2018-05-16T00:45:48.526Z,7.37
2018-05-16T00:48:16.316Z,6.93
2018-05-16T00:50:55.867Z,6.90
2018-05-16T00:53:23.488Z,6.87
2018-05-16T00:55:51.125Z,6.63
2018-05-16T00:58:18.762Z,6.47
2018-05-16T01:00:46.809Z,7.10
2018-05-16T01:03:14.413Z,6.97
2018-05-16T01:05:42.048Z,7.23
2018-05-16T01:08:09.852Z,6.33
2018-05-16T01:10:37.505Z,6.70
2018-05-16T01:13:05.146Z,7.10
2018-05-16T01:15:33.309Z,6.70
2018-05-16T01:18:00.882Z,6.93
2018-05-16T01:20:28.486Z,7.27
2018-05-16T01:22:56.210Z,7.53
2018-05-16T01:25:23.845Z,7.07
2018-05-16T01:27:51.501Z,7.37
2018-05-16T01:30:19.136Z,7.07
2018-05-16T01:32:46.712Z,7.93
2018-05-16T01:35:14.293Z,7.30
2018-05-16T01:37:42.036Z,7.73
2018-05-16T01:40:09.676Z,7.13
2018-05-16T01:42:37.246Z,7.20
2018-05-16T01:45:04.901Z,7.67
2018-05-16T01:47:32.491Z,7.60
2018-05-16T01:50:00.078Z,8.13
2018-05-16T01:52:27.868Z,8.80
2018-05-16T01:54:56.200Z,7.63
2018-05-16T01:57:23.784Z,9.00
2018-05-16T01:59:51.568Z,8.23
2018-05-16T02:02:19.147Z,8.70
2018-05-16T02:04:46.784Z,7.90
2018-05-16T02:07:14.466Z,8.70
2018-05-16T02:09:42.112Z,8.20
2018-05-16T02:12:09.683Z,7.87
2018-05-16T02:14:37.394Z,7.70
2018-05-16T02:17:04.993Z,7.77
2018-05-16T02:19:32.583Z,8.63
2018-05-16T02:22:00.272Z,7.60
2018-05-16T02:24:27.862Z,8.90
2018-05-16T02:26:55.489Z,8.57
2018-05-16T02:29:23.164Z,8.33
2018-05-16T02:31:50.735Z,8.10
2018-05-16T02:34:18.315Z,8.30
2018-05-16T02:36:45.955Z,8.40
2018-05-16T02:39:13.538Z,8.43
2018-05-16T02:41:41.177Z,9.00
2018-05-16T02:44:08.908Z,8.73
2018-05-16T02:46:36.562Z,8.67
2018-05-16T02:49:04.160Z,9.70
2018-05-16T02:51:31.850Z,10.67
2018-05-16T02:53:59.433Z,12.37
2018-05-16T02:56:27.015Z,14.03
2018-05-16T02:58:54.669Z,12.63
2018-05-16T03:01:22.317Z,14.53
2018-05-16T03:03:49.904Z,15.57
2018-05-16T03:06:17.636Z,16.43
2018-05-16T03:08:45.660Z,15.80
2018-05-16T03:11:13.308Z,15.70
2018-05-16T03:13:41.805Z,15.53
2018-05-16T03:16:09.407Z,15.43
2018-05-16T03:18:36.998Z,16.23
2018-05-16T03:21:04.731Z,15.13
2018-05-16T03:23:32.368Z,14.77
2018-05-16T03:25:59.975Z,14.07
2018-05-16T03:28:27.617Z,14.07
2018-05-16T03:30:55.198Z,12.73
2018-05-16T03:33:22.857Z,12.83
2018-05-16T03:35:50.573Z,13.17
2018-05-16T03:38:18.152Z,12.27
2018-05-16T03:40:45.727Z,12.10
2018-05-16T03:43:13.463Z,11.93
2018-05-16T03:45:41.044Z,10.70
2018-05-16T03:48:08.670Z,10.63
2018-05-16T03:50:36.399Z,11.10
2018-05-16T03:53:03.992Z,10.53
2018-05-16T03:55:31.583Z,10.83
2018-05-16T03:58:19.714Z,11.30
2018-05-16T04:01:10.728Z,10.33
2018-05-16T04:03:50.067Z,9.57
2018-05-16T04:06:17.651Z,10.03
2018-05-16T04:08:45.229Z,10.87
2018-05-16T04:11:13.058Z,9.80
2018-05-16T04:13:40.639Z,41.13
2018-05-16T04:16:08.235Z,13.10
2018-05-16T04:18:36.038Z,11.67
2018-05-16T04:21:03.684Z,10.33
2018-05-16T04:23:31.261Z,10.37
2018-05-16T04:25:58.994Z,10.63
2018-05-16T04:28:26.642Z,9.30
2018-05-16T04:30:54.213Z,11.00
2018-05-16T04:33:22.361Z,10.80
2018-05-16T04:35:49.945Z,11.30
2018-05-16T04:38:17.528Z,9.43
2018-05-16T04:40:45.152Z,9.97
2018-05-16T04:43:12.727Z,9.80
2018-05-16T04:45:40.329Z,10.23
2018-05-16T04:48:08.089Z,10.03
2018-05-16T04:50:36.279Z,10.10
2018-05-16T04:53:03.852Z,9.50
2018-05-16T04:55:31.478Z,9.43
2018-05-16T04:57:59.068Z,9.47
2018-05-16T05:00:26.661Z,9.50
2018-05-16T05:02:54.340Z,9.70
2018-05-16T05:05:21.925Z,10.10
2018-05-16T05:07:49.515Z,11.07
2018-05-16T05:10:17.188Z,10.87
2018-05-16T05:12:44.815Z,10.27
2018-05-16T05:15:12.405Z,10.00
2018-05-16T05:17:40.049Z,10.20
2018-05-16T05:20:07.652Z,11.47
2018-05-16T05:22:35.227Z,10.47
2018-05-16T05:25:02.852Z,10.10
2018-05-16T05:27:30.504Z,10.67
2018-05-16T05:29:58.089Z,11.63
2018-05-16T05:32:25.835Z,12.50
2018-05-16T05:34:53.423Z,11.57
2018-05-16T05:37:21.000Z,11.37
2018-05-16T05:39:48.639Z,14.07
2018-05-16T05:42:16.242Z,12.07
2018-05-16T05:44:43.847Z,11.60
2018-05-16T05:47:12.123Z,9.97
2018-05-16T05:49:39.707Z,10.30
2018-05-16T05:52:07.300Z,10.87
2018-05-16T05:54:34.941Z,11.10
2018-05-16T05:57:02.549Z,10.63
2018-05-16T05:59:30.146Z,11.77
2018-05-16T06:01:57.860Z,11.13
2018-05-16T06:04:25.451Z,9.90
2018-05-16T06:06:53.036Z,11.00
2018-05-16T06:09:20.780Z,10.60
2018-05-16T06:11:48.461Z,11.67
2018-05-16T06:14:16.084Z,11.93
2018-05-16T06:16:43.733Z,11.10
2018-05-16T06:19:11.322Z,11.47
2018-05-16T06:21:38.923Z,11.87
2018-05-16T06:24:06.584Z,13.70
2018-05-16T06:26:34.209Z,9.97
2018-05-16T06:29:02.408Z,9.60
2018-05-16T06:31:30.056Z,17.37
2018-05-16T06:33:57.668Z,10.83
2018-05-16T06:36:25.260Z,10.23
2018-05-16T06:38:52.972Z,10.87
2018-05-16T06:41:20.586Z,9.53
2018-05-16T06:43:48.193Z,11.67
2018-05-16T06:46:15.912Z,9.40
2018-05-16T06:48:44.121Z,10.35
2018-05-16T06:51:11.705Z,9.15
2018-05-16T06:53:39.349Z,9.68
2018-05-16T06:56:06.941Z,9.45
2018-05-16T06:58:34.535Z,9.38
2018-05-16T07:01:02.168Z,9.18
2018-05-16T07:03:29.804Z,9.27
2018-05-16T07:05:57.405Z,11.25
2018-05-16T07:08:25.056Z,9.68
2018-05-16T07:10:52.653Z,9.57
2018-05-16T07:13:20.248Z,10.52
2018-05-16T07:15:48.009Z,9.60
2018-05-16T07:18:15.591Z,10.55
2018-05-16T07:20:43.185Z,10.27
2018-05-16T07:23:10.875Z,9.73
2018-05-16T07:25:38.422Z,9.48
2018-05-16T07:28:06.017Z,9.07
2018-05-16T07:30:33.658Z,9.48
2018-05-16T07:33:01.236Z,9.70
2018-05-16T07:35:28.821Z,8.55
2018-05-16T07:37:56.561Z,8.57
2018-05-16T07:40:24.160Z,8.25
2018-05-16T07:42:51.769Z,8.52
2018-05-16T07:45:19.488Z,8.57
2018-05-16T07:47:47.567Z,9.57
2018-05-16T07:50:15.155Z,10.45
2018-05-16T07:52:42.789Z,9.32
2018-05-16T07:55:10.385Z,8.98
2018-05-16T07:57:38.316Z,9.32
2018-05-16T08:00:05.985Z,9.48
2018-05-16T08:02:33.588Z,9.25
2018-05-16T08:05:01.524Z,10.95
2018-05-16T08:07:29.162Z,9.07
2018-05-16T08:09:56.749Z,10.00
2018-05-16T08:12:24.335Z,11.07
2018-05-16T08:14:51.972Z,10.32
2018-05-16T08:17:19.561Z,9.30
2018-05-16T08:19:47.151Z,10.43
2018-05-16T08:22:14.864Z,9.80
2018-05-16T08:24:42.467Z,10.40
2018-05-16T08:27:10.072Z,10.15
2018-05-16T08:29:37.701Z,10.30
2018-05-16T08:32:05.293Z,9.45
2018-05-16T08:34:32.887Z,9.75
2018-05-16T08:37:00.519Z,9.35
2018-05-16T08:39:28.113Z,9.50
2018-05-16T08:41:55.696Z,12.05
2018-05-16T08:44:23.327Z,10.07
2018-05-16T08:46:50.950Z,9.90
2018-05-16T08:49:18.531Z,9.98
2018-05-16T08:51:46.176Z,10.60
2018-05-16T08:54:13.757Z,8.82
2018-05-16T08:56:41.355Z,8.75
2018-05-16T08:59:09.072Z,9.48
2018-05-16T09:01:36.659Z,8.90
2018-05-16T09:04:04.249Z,8.98
2018-05-16T09:06:31.876Z,9.73
2018-05-16T09:08:59.455Z,8.98
2018-05-16T09:11:27.041Z,8.98
2018-05-16T09:13:54.667Z,9.23
2018-05-16T09:16:22.248Z,8.85
2018-05-16T09:18:49.841Z,8.73
2018-05-16T09:21:17.564Z,8.80
2018-05-16T09:23:45.153Z,8.73
2018-05-16T09:26:12.749Z,8.95
2018-05-16T09:28:40.392Z,8.90
2018-05-16T09:31:07.990Z,9.18
2018-05-16T09:33:35.571Z,8.82
2018-05-16T09:36:03.201Z,8.10
2018-05-16T09:38:30.796Z,8.93
2018-05-16T09:40:58.372Z,8.13
2018-05-16T09:43:26.122Z,8.52
2018-05-16T09:45:53.814Z,8.85
2018-05-16T09:48:21.409Z,7.82
2018-05-16T09:50:49.118Z,7.65
2018-05-16T09:53:16.704Z,7.45
2018-05-16T09:55:44.354Z,7.22
2018-05-16T09:58:12.056Z,7.85
2018-05-16T10:00:39.742Z,7.47
2018-05-16T10:03:07.373Z,8.85
2018-05-16T10:05:35.054Z,7.85
2018-05-16T10:08:02.698Z,6.85
2018-05-16T10:10:30.408Z,5.93
2018-05-16T10:12:58.220Z,6.45
2018-05-16T10:15:25.876Z,6.47
2018-05-16T10:17:54.502Z,6.68
2018-05-16T10:20:22.536Z,6.22
2018-05-16T10:22:50.174Z,7.45
2018-05-16T10:25:17.813Z,5.93
2018-05-16T10:27:45.512Z,5.97
2018-05-16T10:30:13.164Z,5.72
2018-05-16T10:32:40.840Z,5.93
2018-05-16T10:35:08.616Z,6.05
2018-05-16T10:37:36.238Z,5.75
2018-05-16T10:40:03.965Z,5.10
2018-05-16T10:42:31.655Z,4.50
2018-05-16T10:44:59.297Z,4.82
2018-05-16T10:47:26.940Z,4.22
2018-05-16T10:49:54.740Z,4.37
2018-05-16T10:52:22.424Z,4.20
2018-05-16T10:54:50.056Z,4.28
2018-05-16T10:57:17.782Z,4.10
2018-05-16T10:59:45.630Z,6.12
2018-05-16T11:02:13.091Z,3.90
2018-05-16T11:04:40.773Z,4.40
2018-05-16T11:07:08.419Z,4.20
2018-05-16T11:09:36.070Z,3.90
2018-05-16T11:12:03.804Z,6.28
2018-05-16T11:14:31.437Z,4.70
2018-05-16T11:16:59.322Z,4.20
2018-05-16T11:19:26.996Z,4.43
2018-05-16T11:21:54.633Z,4.85
2018-05-16T11:24:22.269Z,4.15
2018-05-16T11:26:50.049Z,5.07
2018-05-16T11:29:18.236Z,4.57
2018-05-16T11:31:45.871Z,3.25
2018-05-16T11:34:13.549Z,3.40
2018-05-16T11:36:41.269Z,2.95
2018-05-16T11:39:09.042Z,3.65
2018-05-16T11:41:36.795Z,3.58
2018-05-16T11:44:04.453Z,3.58
2018-05-16T11:46:32.099Z,3.87
2018-05-16T11:48:59.875Z,3.50
2018-05-16T11:51:27.504Z,3.80
2018-05-16T11:53:55.216Z,3.78
2018-05-16T11:56:22.996Z,3.92
2018-05-16T11:58:50.742Z,3.90
2018-05-16T12:01:18.378Z,3.65
2018-05-16T12:03:46.229Z,3.70
2018-05-16T12:06:13.875Z,3.50
2018-05-16T12:08:41.584Z,3.80
2018-05-16T12:11:09.369Z,3.70
2018-05-16T12:13:37.000Z,3.42
2018-05-16T12:16:04.673Z,3.55
2018-05-16T12:18:32.462Z,5.37
2018-05-16T12:21:00.209Z,3.80
2018-05-16T12:23:27.852Z,4.15
2018-05-16T12:25:55.673Z,3.60
2018-05-16T12:28:23.319Z,5.25
2018-05-16T12:30:50.952Z,4.10
2018-05-16T12:33:18.635Z,3.72
2018-05-16T12:35:46.328Z,3.30
2018-05-16T12:38:13.956Z,3.47
2018-05-16T12:40:41.627Z,4.12
2018-05-16T12:43:17.009Z,3.62
2018-05-16T12:45:44.700Z,3.90
2018-05-16T12:48:12.333Z,3.70
2018-05-16T12:50:39.972Z,3.10
2018-05-16T12:53:07.753Z,3.78
2018-05-16T12:55:35.457Z,4.20
2018-05-16T12:58:03.200Z,3.92
2018-05-16T13:00:30.899Z,3.60
2018-05-16T13:02:58.557Z,5.47
2018-05-16T13:05:26.183Z,4.95
2018-05-16T13:07:54.016Z,3.67
2018-05-16T13:10:21.720Z,3.45
2018-05-16T13:12:49.975Z,4.32
2018-05-16T13:15:17.664Z,3.50
2018-05-16T13:17:45.327Z,3.83
2018-05-16T13:20:12.965Z,3.80
2018-05-16T13:22:40.660Z,3.62
2018-05-16T13:25:08.383Z,3.65
2018-05-16T13:27:36.049Z,4.43
2018-05-16T13:30:03.911Z,3.50
2018-05-16T13:32:31.544Z,3.20
2018-05-16T13:34:59.249Z,3.50
2018-05-16T13:37:26.964Z,3.40
2018-05-16T13:39:54.626Z,3.33
2018-05-16T13:42:22.283Z,3.67
2018-05-16T13:44:49.986Z,3.42
2018-05-16T13:47:17.641Z,3.90
2018-05-16T13:49:45.302Z,3.53
2018-05-16T13:52:13.097Z,3.87
2018-05-16T13:54:40.726Z,3.72
2018-05-16T13:57:08.427Z,3.65
2018-05-16T13:59:36.118Z,3.25
2018-05-16T14:02:03.782Z,4.07
2018-05-16T14:04:31.420Z,3.47
2018-05-16T14:06:59.111Z,3.40
2018-05-16T14:09:26.837Z,3.67
2018-05-16T14:11:54.533Z,3.70
2018-05-16T14:14:22.579Z,3.85
2018-05-16T14:16:50.280Z,4.00
2018-05-16T14:19:18.007Z,3.53
2018-05-16T14:21:46.588Z,3.65
2018-05-16T14:24:14.245Z,3.75
2018-05-16T14:26:41.990Z,3.80
2018-05-16T14:29:09.696Z,3.92
2018-05-16T14:31:37.346Z,3.90
2018-05-16T14:34:05.053Z,4.10
2018-05-16T14:36:32.734Z,4.28
2018-05-16T14:39:00.427Z,4.60
2018-05-16T14:41:28.114Z,4.85
2018-05-16T14:43:55.795Z,5.18
2018-05-16T14:46:23.495Z,4.90
2018-05-16T14:48:51.135Z,5.28
2018-05-16T14:51:18.882Z,5.35
2018-05-16T14:53:46.526Z,6.10
2018-05-16T14:56:14.160Z,6.25
2018-05-16T14:58:41.875Z,7.65
2018-05-16T15:01:09.581Z,5.60
2018-05-16T15:03:38.310Z,5.12
2018-05-16T15:06:06.064Z,5.25
2018-05-16T15:08:33.794Z,5.55
2018-05-16T15:11:01.443Z,5.20
2018-05-16T15:13:29.146Z,5.78
2018-05-16T15:15:56.771Z,6.22
2018-05-16T15:18:24.484Z,8.10
2018-05-16T15:20:52.167Z,5.87
2018-05-16T15:23:19.804Z,6.18
2018-05-16T15:25:47.434Z,5.60
2018-05-16T15:28:15.369Z,5.50
2018-05-16T15:30:43.007Z,6.25
2018-05-16T15:33:10.668Z,6.18
2018-05-16T15:35:38.451Z,6.10
2018-05-16T15:38:06.176Z,8.38
2018-05-16T15:40:33.896Z,5.90
2018-05-16T15:43:01.632Z,5.55
2018-05-16T15:45:29.395Z,4.70
2018-05-16T15:47:57.083Z,4.95
2018-05-16T15:50:25.127Z,4.78
2018-05-16T15:52:52.779Z,13.45
2018-05-16T15:55:20.468Z,15.35
2018-05-16T15:57:48.337Z,5.37
2018-05-16T16:00:16.060Z,4.80
2018-05-16T16:02:43.769Z,4.75
2018-05-16T16:05:11.904Z,4.87
2018-05-16T16:07:39.540Z,4.32
2018-05-16T16:10:07.240Z,4.90
2018-05-16T16:12:35.004Z,5.03
2018-05-16T16:15:02.741Z,4.65
2018-05-16T16:17:30.555Z,5.82
2018-05-16T16:19:58.240Z,5.05
2018-05-16T16:22:25.933Z,6.25
2018-05-16T16:24:53.559Z,6.05
2018-05-16T16:27:21.281Z,6.62
2018-05-16T16:29:48.967Z,5.37
2018-05-16T16:32:16.615Z,5.70
2018-05-16T16:34:44.284Z,4.62
2018-05-16T16:37:11.914Z,4.60
2018-05-16T16:39:39.551Z,4.90
2018-05-16T16:42:07.347Z,4.87
2018-05-16T16:44:34.987Z,4.47
2018-05-16T16:47:02.639Z,5.93
2018-05-16T16:49:30.310Z,6.28
2018-05-16T16:51:57.963Z,27.65
2018-05-16T16:54:25.590Z,11.48
2018-05-16T16:56:53.274Z,19.58
2018-05-16T16:59:20.859Z,5.65
2018-05-16T17:01:49.563Z,68.57
2018-05-16T17:04:18.019Z,78.40
2018-05-16T17:06:45.939Z,77.30
2018-05-16T17:09:13.541Z,370.37
2018-05-16T17:11:41.357Z,196.27
2018-05-16T17:14:09.015Z,46.70
2018-05-16T17:16:36.662Z,32.03
2018-05-16T17:19:05.049Z,26.13
2018-05-16T17:21:32.708Z,16.07
2018-05-16T17:24:00.296Z,11.03
2018-05-16T17:26:27.960Z,8.10
2018-05-16T17:28:56.484Z,18.30
2018-05-16T17:31:24.104Z,46.47
2018-05-16T17:33:51.800Z,11.67
2018-05-16T17:36:19.386Z,33.07
2018-05-16T17:38:46.998Z,19.83
2018-05-16T17:41:14.713Z,19.53
2018-05-16T17:43:42.322Z,15.63
2018-05-16T17:46:09.943Z,19.27
2018-05-16T17:48:37.612Z,10.50
2018-05-16T17:51:05.261Z,6.87
2018-05-16T17:53:32.860Z,4.90
2018-05-16T17:56:00.502Z,39.73
2018-05-16T17:58:28.131Z,16.03
2018-05-16T18:00:55.803Z,9.07
2018-05-16T18:03:23.405Z,5.40
2018-05-16T18:05:50.985Z,4.60
2018-05-16T18:08:18.568Z,5.03
2018-05-16T18:10:46.215Z,4.50
2018-05-16T18:16:49.473Z,4.23
2018-05-16T18:19:17.089Z,3.97
2018-05-16T18:21:44.728Z,3.90
2018-05-16T18:24:12.452Z,4.60
2018-05-16T18:26:40.026Z,4.50
2018-05-16T18:29:07.730Z,5.03
2018-05-16T18:31:35.807Z,4.30
2018-05-16T18:34:03.383Z,4.43
2018-05-16T18:36:30.964Z,4.97
2018-05-16T18:38:58.593Z,4.77
2018-05-16T18:41:26.184Z,4.93
2018-05-16T18:43:53.784Z,4.60
2018-05-16T18:46:21.489Z,7.10
2018-05-16T18:48:49.153Z,5.90
2018-05-16T18:51:16.822Z,4.30
2018-05-16T18:53:44.442Z,4.27
2018-05-16T18:56:12.048Z,3.83
2018-05-16T18:58:39.691Z,6.93
2018-05-16T19:01:07.444Z,4.77
2018-05-16T19:03:43.273Z,5.20
2018-05-16T19:06:11.308Z,4.00
2018-05-16T19:08:38.982Z,5.30
2018-05-16T19:11:06.638Z,4.47
2018-05-16T19:13:34.316Z,3.83
2018-05-16T19:16:01.923Z,4.00
2018-05-16T19:18:29.557Z,5.40
2018-05-16T19:20:57.279Z,4.10
2018-05-16T19:23:24.901Z,4.10
2018-05-16T19:25:52.523Z,3.93
2018-05-16T19:28:20.213Z,3.60
2018-05-16T19:30:47.815Z,3.77
2018-05-16T19:33:15.441Z,5.17
2018-05-16T19:35:43.252Z,8.37
2018-05-16T19:38:10.905Z,6.20
2018-05-16T19:40:38.502Z,3.77
2018-05-16T19:43:06.219Z,3.50
2018-05-16T19:45:33.794Z,3.73
2018-05-16T19:48:01.475Z,4.00
2018-05-16T19:50:29.165Z,4.20
2018-05-16T19:52:56.905Z,5.60
2018-05-16T19:55:24.475Z,4.53
2018-05-16T19:57:52.108Z,3.80
2018-05-16T20:00:19.703Z,3.80
2018-05-16T20:02:47.278Z,3.77
2018-05-16T20:05:14.897Z,4.10
2018-05-16T20:07:42.473Z,3.77
2018-05-16T20:10:10.060Z,4.03
2018-05-16T20:12:37.672Z,3.70
2018-05-16T20:15:05.346Z,3.73
2018-05-16T20:17:33.004Z,3.67
2018-05-16T20:20:00.642Z,3.83
2018-05-16T20:22:28.291Z,3.73
2018-05-16T20:24:56.703Z,3.93
2018-05-16T20:27:24.476Z,4.50
2018-05-16T20:29:52.059Z,3.53
2018-05-16T20:32:19.636Z,3.40
2018-05-16T20:34:47.416Z,3.60
2018-05-16T20:37:15.628Z,3.77
2018-05-16T20:39:43.265Z,3.80
2018-05-16T20:42:10.984Z,3.83
2018-05-16T20:44:38.554Z,3.90
2018-05-16T20:47:06.140Z,3.87
2018-05-16T20:49:33.762Z,3.50
2018-05-16T20:52:01.342Z,4.03
2018-05-16T20:54:28.977Z,4.07
2018-05-16T20:56:56.612Z,3.73
2018-05-16T20:59:24.218Z,4.10
2018-05-16T21:01:51.811Z,3.90
2018-05-16T21:04:19.611Z,3.73
2018-05-16T21:06:47.247Z,4.30
2018-05-16T21:09:14.829Z,3.60
2018-05-16T21:11:43.295Z,3.97
2018-05-16T21:14:10.867Z,4.67
2018-05-16T21:16:38.480Z,4.17
2018-05-16T21:19:06.144Z,4.00
2018-05-16T21:21:33.756Z,3.87
2018-05-16T21:24:01.328Z,3.90
2018-05-16T21:26:29.132Z,4.37
2018-05-16T21:28:56.771Z,3.90
2018-05-16T21:31:24.388Z,3.97
2018-05-16T21:33:52.085Z,3.30
2018-05-16T21:36:23.494Z,3.20
2018-05-16T21:38:51.064Z,3.55
2018-05-16T21:41:18.690Z,3.67
2018-05-16T21:43:46.367Z,3.43
2018-05-16T21:46:13.940Z,3.50
2018-05-16T21:48:42.423Z,3.40
2018-05-16T21:51:10.055Z,3.53
2018-05-16T21:53:37.705Z,3.30
2018-05-16T21:56:05.367Z,3.53
2018-05-16T21:58:32.944Z,3.47
2018-05-16T22:01:00.521Z,3.50
2018-05-16T22:03:28.239Z,3.60
2018-05-16T22:05:55.810Z,3.10
2018-05-16T22:08:23.385Z,3.30
2018-05-16T22:10:51.093Z,3.50
2018-05-16T22:13:18.690Z,3.23
2018-05-16T22:15:46.285Z,3.17
2018-05-16T22:18:13.912Z,3.47
2018-05-16T22:20:41.490Z,3.00
2018-05-16T22:23:09.068Z,2.90
2018-05-16T22:25:36.680Z,3.40
2018-05-16T22:28:04.292Z,3.20
2018-05-16T22:30:37.578Z,3.23
2018-05-16T22:33:10.724Z,3.30
2018-05-16T22:35:43.935Z,3.30
2018-05-16T22:38:17.155Z,3.27
2018-05-16T22:40:50.321Z,3.10
2018-05-16T22:43:17.934Z,3.10
2018-05-16T22:45:45.607Z,3.20
2018-05-16T22:48:13.326Z,3.37
2018-05-16T22:50:40.907Z,3.00
2018-05-16T22:53:09.199Z,3.40
2018-05-16T22:55:36.832Z,3.10
2018-05-16T22:58:04.428Z,3.03
2018-05-16T23:00:32.071Z,3.23
2018-05-16T23:02:59.770Z,3.50
2018-05-16T23:05:27.351Z,3.60
2018-05-16T23:07:54.914Z,3.90
2018-05-16T23:10:22.627Z,3.30
2018-05-16T23:12:50.210Z,3.67
2018-05-16T23:15:17.840Z,3.97
2018-05-16T23:17:45.581Z,3.33
2018-05-16T23:20:13.168Z,3.70
2018-05-16T23:22:40.808Z,3.77
2018-05-16T23:25:08.501Z,3.30
2018-05-16T23:27:36.671Z,3.63
2018-05-16T23:30:04.271Z,3.43
2018-05-16T23:32:31.953Z,3.70
2018-05-16T23:34:59.536Z,4.00
2018-05-16T23:37:27.134Z,4.07
2018-05-16T23:39:54.760Z,4.10
2018-05-16T23:42:22.337Z,3.80
2018-05-16T23:44:50.850Z,3.53
2018-05-16T23:47:18.548Z,3.73
2018-05-16T23:49:46.888Z,4.10
2018-05-16T23:52:14.516Z,4.20
2018-05-16T23:54:42.211Z,3.93
2018-05-16T23:57:09.828Z,4.13
2018-05-16T23:59:37.460Z,4.33
